createdAt,value
2019-04-04T00:00:59.181Z,57.98
2019-04-04T00:03:37.485Z,55.70
2019-04-04T00:06:15.560Z,53.13
2019-04-04T00:08:54.132Z,66.35
2019-04-04T00:11:31.784Z,65.30
2019-04-04T00:14:12.727Z,60.67
2019-04-04T00:16:49.377Z,57.17
2019-04-04T00:19:29.931Z,57.25
2019-04-04T00:22:08.078Z,56.08
2019-04-04T00:24:46.999Z,61.28
2019-04-04T00:27:25.297Z,71.20
2019-04-04T00:30:04.444Z,74.45
2019-04-04T00:32:44.326Z,62.80
2019-04-04T00:35:22.431Z,51.48
2019-04-04T00:38:00.284Z,60.65
2019-04-04T00:40:40.109Z,53.75
2019-04-04T00:43:20.746Z,47.43
2019-04-04T00:46:00.490Z,57.55
2019-04-04T00:48:38.842Z,47.75
2019-04-04T00:51:17.640Z,50.73
2019-04-04T00:53:55.593Z,55.30
2019-04-04T00:56:33.805Z,54.10
2019-04-04T00:59:11.949Z,51.23
2019-04-04T01:01:51.555Z,55.88
2019-04-04T01:04:31.130Z,45.98
2019-04-04T01:07:09.820Z,47.48
2019-04-04T01:09:48.810Z,46.95
2019-04-04T01:12:28.017Z,50.78
2019-04-04T01:15:05.955Z,49.83
2019-04-04T01:17:44.729Z,51.60
2019-04-04T01:20:23.762Z,49.55
2019-04-04T01:23:02.921Z,40.60
2019-04-04T01:25:41.358Z,41.37
2019-04-04T01:28:20.474Z,55.52
2019-04-04T01:30:58.628Z,59.18
2019-04-04T01:33:37.957Z,41.48
2019-04-04T01:36:17.767Z,51.42
2019-04-04T01:38:56.020Z,43.33
2019-04-04T01:41:36.163Z,47.00
2019-04-04T01:44:14.216Z,43.23
2019-04-04T01:46:52.923Z,42.05
2019-04-04T01:49:31.223Z,45.25
2019-04-04T01:52:10.358Z,26.37
2019-04-04T01:54:48.997Z,21.00
2019-04-04T01:57:27.320Z,13.15
2019-04-04T02:00:06.671Z,10.18
2019-04-04T02:02:45.451Z,11.12
2019-04-04T02:05:26.693Z,10.70
2019-04-04T02:08:04.197Z,13.90
2019-04-04T02:10:42.226Z,13.35
2019-04-04T02:13:20.612Z,19.37
2019-04-04T02:15:59.751Z,18.00
2019-04-04T02:18:37.796Z,13.72
2019-04-04T02:21:17.310Z,12.45
2019-04-04T02:23:55.366Z,16.82
2019-04-04T02:26:36.073Z,12.43
2019-04-04T02:29:13.862Z,14.33
2019-04-04T02:31:55.557Z,15.03
2019-04-04T02:34:37.507Z,11.97
2019-04-04T02:37:13.826Z,13.78
2019-04-04T02:39:53.512Z,14.65
2019-04-04T02:42:31.588Z,19.00
2019-04-04T02:45:09.560Z,12.98
2019-04-04T02:47:51.379Z,16.27
2019-04-04T02:50:29.090Z,11.68
2019-04-04T02:53:07.416Z,17.32
2019-04-04T02:55:45.156Z,15.30
2019-04-04T02:58:24.662Z,12.90
2019-04-04T03:01:03.196Z,11.57
2019-04-04T03:03:42.283Z,9.93
2019-04-04T03:06:24.047Z,14.93
2019-04-04T03:08:59.924Z,18.52
2019-04-04T03:11:39.029Z,11.33
2019-04-04T03:14:17.554Z,12.73
2019-04-04T03:16:56.912Z,10.88
2019-04-04T03:19:37.468Z,11.18
2019-04-04T03:22:15.635Z,14.65
2019-04-04T03:24:54.214Z,10.53
2019-04-04T03:27:32.325Z,11.40
2019-04-04T03:30:14.568Z,10.50
2019-04-04T03:35:29.542Z,11.78
2019-04-04T03:38:07.619Z,10.88
2019-04-04T03:40:46.518Z,10.75
2019-04-04T03:43:26.023Z,13.80
2019-04-04T03:46:04.552Z,17.30
2019-04-04T03:48:43.085Z,12.82
2019-04-04T03:51:22.285Z,12.13
2019-04-04T03:54:05.088Z,14.00
2019-04-04T03:56:42.621Z,13.35
2019-04-04T03:59:20.387Z,13.70
2019-04-04T04:01:59.020Z,16.80
2019-04-04T04:04:37.361Z,11.57
2019-04-04T04:07:15.631Z,13.08
2019-04-04T04:09:53.387Z,15.00
2019-04-04T04:12:32.604Z,15.10
2019-04-04T04:15:11.692Z,14.35
2019-04-04T04:17:49.833Z,13.28
2019-04-04T04:20:28.133Z,9.08
2019-04-04T04:23:06.887Z,12.73
2019-04-04T04:25:47.471Z,9.25
2019-04-04T04:31:04.154Z,9.73
2019-04-04T04:33:42.938Z,11.40
2019-04-04T04:36:21.049Z,13.50
2019-04-04T04:39:00.272Z,14.28
2019-04-04T04:41:40.702Z,13.03
2019-04-04T04:44:20.658Z,9.80
2019-04-04T04:46:59.822Z,10.05
2019-04-04T04:49:38.730Z,11.25
2019-04-04T04:52:16.769Z,10.18
2019-04-04T04:54:55.807Z,9.78
2019-04-04T04:57:34.416Z,9.43
2019-04-04T05:00:13.965Z,11.18
2019-04-04T05:02:53.786Z,10.78
2019-04-04T05:05:33.126Z,9.85
2019-04-04T05:08:11.061Z,11.28
2019-04-04T05:10:49.029Z,12.07
2019-04-04T05:13:28.816Z,9.33
2019-04-04T05:16:08.871Z,11.65
2019-04-04T05:18:48.284Z,8.13
2019-04-04T05:21:28.720Z,8.10
2019-04-04T05:24:06.410Z,9.05
2019-04-04T05:26:45.776Z,11.10
2019-04-04T05:29:23.754Z,9.58
2019-04-04T05:32:01.995Z,7.05
2019-04-04T05:34:40.093Z,7.67
2019-04-04T05:37:19.030Z,7.67
2019-04-04T05:39:57.190Z,9.55
2019-04-04T05:42:35.364Z,14.23
2019-04-04T05:45:14.434Z,9.30
2019-04-04T05:47:56.288Z,8.03
2019-04-04T05:50:33.599Z,7.12
2019-04-04T05:53:12.074Z,9.98
2019-04-04T05:55:50.161Z,10.20
2019-04-04T05:58:29.057Z,9.18
2019-04-04T06:01:08.368Z,10.68
2019-04-04T06:03:47.894Z,10.63
2019-04-04T06:06:26.417Z,10.18
2019-04-04T06:09:06.715Z,10.95
2019-04-04T06:11:44.936Z,8.23
2019-04-04T06:14:23.605Z,9.45
2019-04-04T06:17:01.948Z,5.85
2019-04-04T06:19:40.604Z,5.65
2019-04-04T06:22:21.189Z,7.67
2019-04-04T06:25:00.027Z,8.98
2019-04-04T06:27:40.049Z,7.60
2019-04-04T06:30:20.165Z,10.78
2019-04-04T06:32:58.789Z,7.15
2019-04-04T06:35:39.548Z,10.53
2019-04-04T06:38:16.395Z,10.58
2019-04-04T06:40:55.471Z,8.93
2019-04-04T06:43:33.846Z,8.38
2019-04-04T06:46:12.621Z,7.17
2019-04-04T06:48:50.407Z,7.37
2019-04-04T06:51:30.378Z,9.55
2019-04-04T06:54:10.105Z,7.33
2019-04-04T06:56:48.640Z,12.63
2019-04-04T06:59:26.739Z,14.13
2019-04-04T07:02:06.074Z,9.63
2019-04-04T07:04:44.227Z,8.20
2019-04-04T07:07:22.973Z,10.20
2019-04-04T07:10:01.058Z,7.97
2019-04-04T07:12:40.808Z,6.53
2019-04-04T07:15:19.321Z,8.58
2019-04-04T07:17:57.531Z,13.80
2019-04-04T07:20:35.240Z,9.13
2019-04-04T07:23:14.568Z,9.83
2019-04-04T07:25:55.916Z,10.00
2019-04-04T07:28:33.989Z,13.05
2019-04-04T07:31:15.789Z,9.03
2019-04-04T07:33:53.078Z,11.68
2019-04-04T07:36:31.306Z,7.42
2019-04-04T07:39:12.333Z,6.25
2019-04-04T07:41:49.498Z,11.12
2019-04-04T07:44:28.537Z,10.43
2019-04-04T07:47:07.159Z,7.35
2019-04-04T07:49:45.519Z,10.15
2019-04-04T07:52:24.291Z,7.67
2019-04-04T07:55:03.845Z,16.25
2019-04-04T07:57:43.178Z,5.92
2019-04-04T08:00:22.097Z,9.65
2019-04-04T08:03:00.305Z,9.90
2019-04-04T08:05:38.928Z,11.38
2019-04-04T08:08:17.070Z,7.25
2019-04-04T08:10:56.251Z,9.95
2019-04-04T08:13:34.519Z,6.17
2019-04-04T08:16:13.519Z,10.90
2019-04-04T08:18:51.625Z,12.53
2019-04-04T08:21:29.789Z,5.15
2019-04-04T08:24:08.332Z,11.90
2019-04-04T08:26:47.509Z,8.53
2019-04-04T08:29:26.715Z,10.95
2019-04-04T08:32:06.096Z,10.85
2019-04-04T08:34:43.901Z,8.93
2019-04-04T08:37:22.809Z,5.95
2019-04-04T08:40:00.873Z,7.05
2019-04-04T08:42:39.959Z,9.23
2019-04-04T08:45:18.352Z,11.25
2019-04-04T08:47:57.373Z,8.83
2019-04-04T08:50:35.660Z,11.03
2019-04-04T08:53:14.449Z,12.75
2019-04-04T08:55:52.715Z,12.93
2019-04-04T08:58:33.059Z,11.90
2019-04-04T09:01:12.455Z,3.42
2019-04-04T09:03:50.908Z,7.22
2019-04-04T09:06:29.062Z,16.55
2019-04-04T09:09:09.486Z,8.78
2019-04-04T09:11:47.694Z,8.00
2019-04-04T09:14:26.192Z,8.95
2019-04-04T09:17:04.889Z,8.10
2019-04-04T09:19:44.246Z,16.02
2019-04-04T09:22:24.069Z,9.55
2019-04-04T09:25:01.919Z,7.33
2019-04-04T09:27:40.035Z,6.83
2019-04-04T09:30:21.535Z,9.83
2019-04-04T09:33:00.957Z,13.85
2019-04-04T09:35:39.610Z,9.70
2019-04-04T09:38:18.017Z,8.88
2019-04-04T09:40:56.527Z,5.62
2019-04-04T09:43:34.348Z,8.98
2019-04-04T09:46:12.089Z,6.70
2019-04-04T09:48:50.180Z,8.08
2019-04-04T09:51:28.830Z,6.30
2019-04-04T09:54:09.295Z,8.85
2019-04-04T09:56:47.359Z,12.18
2019-04-04T09:59:25.489Z,7.72
2019-04-04T10:02:04.667Z,8.15
2019-04-04T10:04:43.401Z,7.72
2019-04-04T10:07:22.114Z,8.68
2019-04-04T10:10:01.031Z,11.50
2019-04-04T10:12:40.614Z,9.45
2019-04-04T10:15:19.990Z,11.70
2019-04-04T10:17:59.100Z,9.03
2019-04-04T10:20:37.439Z,6.78
2019-04-04T10:23:16.880Z,7.45
2019-04-04T10:25:54.942Z,11.03
2019-04-04T10:28:33.377Z,16.57
2019-04-04T10:31:11.388Z,8.60
2019-04-04T10:33:50.313Z,11.00
2019-04-04T10:36:30.236Z,8.08
2019-04-04T10:39:10.876Z,9.63
2019-04-04T10:41:49.316Z,9.55
2019-04-04T10:44:27.948Z,12.23
2019-04-04T10:47:06.095Z,8.20
2019-04-04T10:49:44.678Z,14.85
2019-04-04T10:52:22.578Z,12.00
2019-04-04T10:55:01.889Z,8.00
2019-04-04T10:57:40.194Z,8.28
2019-04-04T11:00:19.147Z,12.37
2019-04-04T11:02:57.533Z,7.65
2019-04-04T11:05:36.556Z,8.65
2019-04-04T11:08:16.177Z,9.98
2019-04-04T11:10:54.305Z,12.03
2019-04-04T11:13:33.667Z,13.00
2019-04-04T11:16:12.495Z,15.20
2019-04-04T11:18:52.625Z,11.97
2019-04-04T11:21:30.569Z,13.65
2019-04-04T11:24:09.726Z,12.03
2019-04-04T11:26:48.966Z,14.87
2019-04-04T11:29:28.076Z,10.93
2019-04-04T11:32:06.754Z,14.35
2019-04-04T11:34:52.984Z,18.05
2019-04-04T11:37:25.382Z,12.25
2019-04-04T11:40:04.387Z,12.15
2019-04-04T11:42:42.827Z,10.85
2019-04-04T11:45:21.254Z,9.13
2019-04-04T11:48:00.028Z,10.70
2019-04-04T11:50:39.863Z,11.60
2019-04-04T11:53:18.855Z,13.65
2019-04-04T11:55:57.817Z,15.18
2019-04-04T11:58:37.642Z,13.88
2019-04-04T12:01:16.044Z,10.08
2019-04-04T12:03:54.047Z,13.58
2019-04-04T12:06:33.256Z,13.98
2019-04-04T12:09:12.778Z,10.40
2019-04-04T12:11:51.779Z,12.37
2019-04-04T12:14:30.099Z,14.05
2019-04-04T12:17:08.485Z,12.93
2019-04-04T12:19:47.416Z,14.85
2019-04-04T12:22:24.968Z,15.00
2019-04-04T12:25:03.813Z,12.37
2019-04-04T12:27:42.405Z,13.38
2019-04-04T12:30:21.576Z,13.58
2019-04-04T12:33:00.242Z,13.25
2019-04-04T12:35:38.939Z,11.57
2019-04-04T12:38:17.982Z,12.37
2019-04-04T12:40:56.985Z,13.32
2019-04-04T12:43:36.363Z,17.60
2019-04-04T12:46:14.309Z,14.33
2019-04-04T12:48:52.597Z,14.93
2019-04-04T12:51:32.097Z,15.50
2019-04-04T12:54:10.174Z,12.28
2019-04-04T12:56:48.814Z,13.88
2019-04-04T12:59:26.910Z,11.68
2019-04-04T13:02:05.643Z,9.95
2019-04-04T13:04:43.608Z,12.80
2019-04-04T13:07:21.937Z,12.40
2019-04-04T13:10:10.914Z,13.78
2019-04-04T13:12:42.049Z,16.05
2019-04-04T13:15:21.348Z,12.90
2019-04-04T13:17:59.425Z,12.68
2019-04-04T13:20:37.405Z,12.15
2019-04-04T13:23:16.844Z,14.80
2019-04-04T13:25:54.942Z,15.00
2019-04-04T13:28:33.422Z,16.00
2019-04-04T13:31:11.605Z,11.65
2019-04-04T13:33:51.089Z,12.60
2019-04-04T13:36:29.201Z,12.85
2019-04-04T13:39:09.359Z,12.00
2019-04-04T13:41:48.048Z,15.63
2019-04-04T13:44:27.322Z,13.90
2019-04-04T13:47:06.447Z,17.27
2019-04-04T13:49:45.049Z,14.65
2019-04-04T13:52:26.084Z,11.12
2019-04-04T13:55:05.072Z,16.20
2019-04-04T13:57:47.611Z,12.20
2019-04-04T14:00:26.102Z,13.00
2019-04-04T14:03:04.302Z,20.80
2019-04-04T14:05:43.004Z,14.75
2019-04-04T14:08:21.203Z,11.75
2019-04-04T14:10:59.496Z,12.93
2019-04-04T14:13:38.101Z,18.25
2019-04-04T14:16:16.995Z,11.97
2019-04-04T14:18:56.088Z,10.15
2019-04-04T14:21:33.970Z,17.57
2019-04-04T14:24:13.794Z,12.75
2019-04-04T14:26:52.448Z,10.65
2019-04-04T14:29:30.494Z,17.17
2019-04-04T14:32:09.152Z,12.78
2019-04-04T14:34:46.907Z,15.30
2019-04-04T14:37:24.779Z,18.92
2019-04-04T14:40:02.941Z,16.52
2019-04-04T14:42:42.858Z,15.35
2019-04-04T14:45:21.077Z,21.75
2019-04-04T14:48:00.949Z,18.20
2019-04-04T14:50:41.156Z,16.62
2019-04-04T14:53:19.890Z,14.35
2019-04-04T14:55:58.310Z,18.42
2019-04-04T14:58:38.190Z,13.00
2019-04-04T15:01:16.151Z,15.72
2019-04-04T15:03:54.763Z,11.63
2019-04-04T15:06:32.738Z,19.85
2019-04-04T15:09:13.687Z,13.25
2019-04-04T15:11:51.566Z,13.98
2019-04-04T15:14:30.003Z,12.95
2019-04-04T15:17:08.618Z,15.28
2019-04-04T15:19:47.406Z,19.85
2019-04-04T15:22:26.348Z,18.92
2019-04-04T15:25:04.974Z,18.70
2019-04-04T15:27:43.249Z,15.80
2019-04-04T15:30:21.891Z,11.90
2019-04-04T15:33:02.615Z,15.32
2019-04-04T15:35:40.245Z,17.98
2019-04-04T15:38:18.525Z,16.15
2019-04-04T15:40:57.547Z,15.68
2019-04-04T15:43:35.801Z,15.05
2019-04-04T15:46:13.803Z,13.32
2019-04-04T15:48:52.395Z,11.85
2019-04-04T15:51:31.216Z,12.05
2019-04-04T15:54:09.796Z,16.10
2019-04-04T15:56:48.428Z,15.23
2019-04-04T15:59:27.086Z,12.05
2019-04-04T16:02:07.312Z,13.13
2019-04-04T16:04:45.433Z,15.13
2019-04-04T16:07:23.899Z,13.95
2019-04-04T16:10:02.003Z,12.13
2019-04-04T16:12:41.160Z,13.58
2019-04-04T16:15:19.505Z,12.18
2019-04-04T16:17:57.851Z,9.30
2019-04-04T16:20:36.640Z,10.32
2019-04-04T16:23:15.365Z,17.23
2019-04-04T16:25:54.236Z,22.30
2019-04-04T16:28:33.212Z,13.43
2019-04-04T16:31:11.628Z,15.43
2019-04-04T16:33:50.854Z,13.98
2019-04-04T16:36:28.911Z,14.38
2019-04-04T16:39:08.899Z,15.95
2019-04-04T16:41:46.689Z,15.38
2019-04-04T16:44:26.457Z,15.03
2019-04-04T16:47:04.362Z,14.30
2019-04-04T16:49:42.838Z,12.28
2019-04-04T16:52:21.212Z,13.35
2019-04-04T16:54:59.392Z,13.55
2019-04-04T16:57:38.926Z,9.83
2019-04-04T17:00:20.858Z,13.15
2019-04-04T17:02:59.628Z,11.95
2019-04-04T17:05:38.818Z,14.90
2019-04-04T17:08:16.957Z,10.25
2019-04-04T17:10:55.571Z,12.93
2019-04-04T17:13:33.893Z,8.80
2019-04-04T17:16:12.278Z,13.20
2019-04-04T17:18:50.180Z,10.48
2019-04-04T17:21:28.559Z,14.28
2019-04-04T17:24:07.703Z,12.45
2019-04-04T17:26:47.016Z,11.10
2019-04-04T17:29:25.893Z,10.75
2019-04-04T17:32:04.287Z,14.87
2019-04-04T17:34:43.303Z,11.38
2019-04-04T17:37:22.559Z,12.03
2019-04-04T17:40:00.529Z,13.65
2019-04-04T17:42:39.340Z,12.73
2019-04-04T17:45:17.711Z,13.25
2019-04-04T17:47:56.871Z,10.40
2019-04-04T17:50:35.650Z,15.10
2019-04-04T17:53:14.985Z,11.43
2019-04-04T17:55:56.103Z,13.70
2019-04-04T17:58:35.705Z,12.33
2019-04-04T18:01:15.401Z,15.43
2019-04-04T18:03:53.663Z,13.83
2019-04-04T18:06:31.587Z,15.53
2019-04-04T18:09:12.473Z,17.65
2019-04-04T18:11:51.308Z,35.10
2019-04-04T18:14:29.472Z,38.90
2019-04-04T18:17:07.638Z,25.17
2019-04-04T18:19:47.463Z,33.02
2019-04-04T18:22:25.626Z,26.62
2019-04-04T18:25:03.836Z,19.42
2019-04-04T18:27:42.866Z,16.27
2019-04-04T18:30:22.445Z,11.35
2019-04-04T18:33:01.474Z,17.90
2019-04-04T18:35:39.702Z,14.73
2019-04-04T18:38:18.384Z,14.20
2019-04-04T18:40:57.213Z,13.83
2019-04-04T18:43:35.489Z,10.85
2019-04-04T18:46:13.817Z,15.85
2019-04-04T18:48:52.001Z,15.03
2019-04-04T18:51:30.495Z,14.20
2019-04-04T18:54:27.264Z,11.93
2019-04-04T18:57:05.229Z,15.20
2019-04-04T18:59:44.509Z,11.73
2019-04-04T19:02:25.546Z,11.60
2019-04-04T19:05:06.284Z,9.48
2019-04-04T19:07:44.550Z,10.93
2019-04-04T19:10:22.928Z,10.95
2019-04-04T19:13:05.642Z,10.03
2019-04-04T19:15:41.833Z,13.45
2019-04-04T19:18:19.745Z,13.05
2019-04-04T19:20:58.083Z,10.90
2019-04-04T19:23:48.532Z,13.53
2019-04-04T19:26:16.836Z,15.80
2019-04-04T19:28:54.905Z,12.23
2019-04-04T19:31:33.416Z,13.50
2019-04-04T19:34:12.178Z,14.38
2019-04-04T19:36:51.277Z,15.30
2019-04-04T19:39:29.657Z,17.62
2019-04-04T19:42:07.833Z,14.23
2019-04-04T19:44:53.240Z,13.85
2019-04-04T19:47:26.362Z,12.37
2019-04-04T19:50:04.618Z,10.82
2019-04-04T19:52:43.147Z,15.80
2019-04-04T19:55:22.249Z,14.10
2019-04-04T19:58:00.342Z,15.98
2019-04-04T20:00:38.477Z,13.88
2019-04-04T20:03:17.195Z,12.50
2019-04-04T20:05:55.965Z,12.03
2019-04-04T20:08:34.120Z,13.83
2019-04-04T20:11:12.550Z,17.30
2019-04-04T20:13:50.524Z,12.53
2019-04-04T20:16:29.497Z,15.15
2019-04-04T20:19:07.549Z,16.73
2019-04-04T20:21:46.663Z,13.90
2019-04-04T20:24:24.659Z,14.00
2019-04-04T20:27:06.354Z,13.00
2019-04-04T20:29:44.581Z,15.10
2019-04-04T20:32:22.601Z,13.98
2019-04-04T20:35:00.992Z,15.85
2019-04-04T20:37:40.213Z,16.37
2019-04-04T20:40:19.137Z,16.30
2019-04-04T20:42:58.178Z,17.55
2019-04-04T20:45:36.119Z,19.07
2019-04-04T20:48:14.291Z,17.20
2019-04-04T20:50:52.195Z,14.28
2019-04-04T20:53:30.583Z,16.27
2019-04-04T20:56:09.305Z,16.00
2019-04-04T20:58:47.819Z,16.05
2019-04-04T21:01:26.238Z,11.63
2019-04-04T21:04:07.677Z,15.30
2019-04-04T21:06:46.102Z,14.43
2019-04-04T21:09:25.384Z,15.68
2019-04-04T21:12:04.593Z,11.05
2019-04-04T21:14:43.055Z,10.82
2019-04-04T21:17:20.881Z,16.40
2019-04-04T21:19:59.052Z,12.75
2019-04-04T21:22:37.922Z,12.15
2019-04-04T21:25:17.097Z,20.00
2019-04-04T21:27:55.097Z,13.50
2019-04-04T21:30:33.724Z,16.23
2019-04-04T21:33:11.739Z,16.80
2019-04-04T21:35:50.284Z,13.00
2019-04-04T21:38:28.839Z,19.30
2019-04-04T21:41:07.886Z,25.05
2019-04-04T21:43:48.139Z,21.27
2019-04-04T21:46:26.557Z,20.52
2019-04-04T21:49:04.460Z,18.55
2019-04-04T21:51:43.458Z,20.00
2019-04-04T21:54:21.482Z,18.70
2019-04-04T21:57:00.012Z,17.60
2019-04-04T21:59:38.043Z,21.95
2019-04-04T22:02:16.778Z,24.35
2019-04-04T22:04:55.641Z,21.00
2019-04-04T22:07:34.115Z,19.45
2019-04-04T22:10:13.176Z,23.32
2019-04-04T22:12:52.439Z,18.27
2019-04-04T22:15:31.884Z,18.48
2019-04-04T22:18:10.463Z,13.90
2019-04-04T22:20:48.423Z,21.23
2019-04-04T22:23:28.291Z,19.37
2019-04-04T22:26:06.981Z,11.68
2019-04-04T22:28:45.713Z,17.30
2019-04-04T22:31:24.203Z,14.30
2019-04-04T22:34:03.196Z,20.15
2019-04-04T22:36:41.559Z,25.72
2019-04-04T22:39:20.139Z,16.00
2019-04-04T22:41:58.513Z,15.70
2019-04-04T22:44:38.914Z,26.75
2019-04-04T22:47:18.424Z,26.00
2019-04-04T22:49:56.274Z,13.88
2019-04-04T22:52:34.064Z,17.98
2019-04-04T22:55:13.153Z,24.45
2019-04-04T22:57:51.400Z,23.62
2019-04-04T23:00:29.993Z,16.30
2019-04-04T23:03:08.693Z,14.98
2019-04-04T23:05:47.983Z,14.35
2019-04-04T23:08:26.048Z,15.28
2019-04-04T23:11:04.829Z,14.75
2019-04-04T23:13:44.964Z,15.03
2019-04-04T23:16:24.544Z,16.65
2019-04-04T23:19:03.492Z,18.52
2019-04-04T23:21:42.253Z,17.62
2019-04-04T23:24:20.393Z,15.78
2019-04-04T23:26:59.520Z,13.38
2019-04-04T23:29:37.720Z,20.65
2019-04-04T23:32:16.157Z,23.85
2019-04-04T23:34:55.514Z,28.75
2019-04-04T23:37:33.887Z,13.03
2019-04-04T23:40:12.086Z,14.38
2019-04-04T23:42:50.525Z,10.70
2019-04-04T23:45:29.216Z,12.35
2019-04-04T23:48:07.940Z,14.90
2019-04-04T23:50:47.125Z,13.45
2019-04-04T23:53:25.408Z,16.42
2019-04-04T23:56:03.946Z,14.95
2019-04-04T23:58:43.182Z,14.23
